createdAt,value
2017-12-29T00:04:15.176Z,99479
2017-12-29T00:09:16.726Z,99486
2017-12-29T00:14:19.119Z,99492
2017-12-29T00:19:20.617Z,99497
2017-12-29T00:24:22.849Z,99500
2017-12-29T00:29:24.365Z,99505
2017-12-29T00:34:26.683Z,99504
2017-12-29T00:39:28.184Z,99512
2017-12-29T00:44:29.702Z,99509
2017-12-29T00:49:31.266Z,99509
2017-12-29T00:54:32.790Z,99516
2017-12-29T00:59:34.281Z,99529
2017-12-29T01:04:36.579Z,99548
2017-12-29T01:09:38.171Z,99554
2017-12-29T01:14:40.291Z,99547
2017-12-29T01:19:41.793Z,99570
2017-12-29T01:24:44.049Z,99554
2017-12-29T01:29:45.650Z,99563
2017-12-29T01:34:47.949Z,99580
2017-12-29T01:39:49.500Z,99586
2017-12-29T01:44:51.784Z,99583
2017-12-29T01:49:54.066Z,99575
2017-12-29T01:54:56.316Z,99589
2017-12-29T01:59:57.901Z,99577
2017-12-29T02:04:59.420Z,99573
2017-12-29T02:10:00.929Z,99577
2017-12-29T02:15:02.401Z,99573
2017-12-29T02:20:03.950Z,99582
2017-12-29T02:25:05.475Z,99579
2017-12-29T02:30:07.257Z,99578
2017-12-29T02:35:08.761Z,99577
2017-12-29T02:40:10.231Z,99581
2017-12-29T02:45:11.943Z,99581
2017-12-29T02:50:13.470Z,99587
2017-12-29T02:55:15.010Z,99587
2017-12-29T03:00:16.534Z,99595
2017-12-29T03:05:18.797Z,99600
2017-12-29T03:10:20.308Z,99610
2017-12-29T03:15:21.800Z,99616
2017-12-29T03:20:23.350Z,99617
2017-12-29T03:25:25.885Z,99615
2017-12-29T03:30:27.468Z,99610
2017-12-29T03:35:29.726Z,99607
2017-12-29T03:40:31.269Z,99603
2017-12-29T03:45:32.861Z,99598
2017-12-29T03:50:34.408Z,99597
2017-12-29T03:55:35.918Z,99607
2017-12-29T04:00:37.437Z,99610
2017-12-29T04:05:38.981Z,99614
2017-12-29T04:10:40.558Z,99607
2017-12-29T04:15:42.077Z,99610
2017-12-29T04:20:43.624Z,99606
2017-12-29T04:25:45.115Z,99601
2017-12-29T04:30:46.676Z,99600
2017-12-29T04:35:48.361Z,99603
2017-12-29T04:40:49.868Z,99614
2017-12-29T04:45:51.371Z,99611
2017-12-29T04:50:52.935Z,99619
2017-12-29T04:55:54.432Z,99625
2017-12-29T05:00:55.953Z,99624
2017-12-29T05:05:57.523Z,99617
2017-12-29T05:10:59.063Z,99628
2017-12-29T05:16:00.565Z,99633
2017-12-29T05:21:01.985Z,99629
2017-12-29T05:26:04.241Z,99637
2017-12-29T05:31:05.947Z,99636
2017-12-29T05:36:07.524Z,99642
2017-12-29T05:41:08.993Z,99658
2017-12-29T05:46:10.473Z,99654
2017-12-29T05:51:12.037Z,99645
2017-12-29T05:56:13.564Z,99647
2017-12-29T06:01:15.813Z,99651
2017-12-29T06:06:17.370Z,99646
2017-12-29T06:11:18.909Z,99649
2017-12-29T06:16:20.402Z,99654
2017-12-29T06:21:21.907Z,99647
2017-12-29T06:26:23.433Z,99638
2017-12-29T06:31:25.002Z,99653
2017-12-29T06:36:26.508Z,99653
2017-12-29T06:41:28.009Z,99660
2017-12-29T06:46:29.580Z,99645
2017-12-29T06:51:31.127Z,99652
2017-12-29T06:56:33.524Z,99648
2017-12-29T07:01:35.808Z,99665
2017-12-29T07:06:38.084Z,99661
2017-12-29T07:11:40.351Z,99667
2017-12-29T07:16:41.900Z,99662
2017-12-29T07:21:43.536Z,99684
2017-12-29T07:26:45.120Z,99681
2017-12-29T07:31:46.672Z,99670
2017-12-29T07:36:48.229Z,99667
2017-12-29T07:41:49.733Z,99674
2017-12-29T07:46:51.215Z,99680
2017-12-29T07:51:52.697Z,99663
2017-12-29T07:56:54.224Z,99666
2017-12-29T08:01:56.052Z,99669
2017-12-29T08:06:58.300Z,99680
2017-12-29T08:11:59.868Z,99668
2017-12-29T08:17:01.510Z,99674
2017-12-29T08:22:03.055Z,99671
2017-12-29T08:27:04.641Z,99676
2017-12-29T08:32:06.149Z,99675
2017-12-29T08:37:07.726Z,99648
2017-12-29T08:42:09.174Z,99652
2017-12-29T08:47:10.719Z,99661
2017-12-29T08:52:12.221Z,99665
2017-12-29T08:57:13.833Z,99656
2017-12-29T09:02:15.349Z,99658
2017-12-29T09:07:16.892Z,99660
2017-12-29T09:12:18.406Z,99666
2017-12-29T09:17:19.930Z,99660
2017-12-29T09:22:21.473Z,99672
2017-12-29T09:27:23.008Z,99671
2017-12-29T09:32:25.590Z,99656
2017-12-29T09:37:27.153Z,99659
2017-12-29T09:42:28.658Z,99653
2017-12-29T09:47:30.178Z,99651
2017-12-29T09:52:31.911Z,99645
2017-12-29T09:57:33.443Z,99639
2017-12-29T10:02:35.113Z,99636
2017-12-29T10:07:37.388Z,99625
2017-12-29T10:12:38.940Z,99608
2017-12-29T10:17:40.474Z,99611
2017-12-29T10:22:42.083Z,99605
2017-12-29T10:27:43.631Z,99602
2017-12-29T10:32:45.166Z,99591
2017-12-29T10:37:46.728Z,99594
2017-12-29T10:42:48.284Z,99595
2017-12-29T10:47:50.574Z,99592
2017-12-29T10:52:52.875Z,99588
2017-12-29T10:57:54.419Z,99597
2017-12-29T11:02:56.699Z,99597
2017-12-29T11:07:58.977Z,99587
2017-12-29T11:13:00.602Z,99575
2017-12-29T11:18:02.160Z,99572
2017-12-29T11:23:03.701Z,99569
2017-12-29T11:28:05.993Z,99554
2017-12-29T11:33:07.562Z,99556
2017-12-29T11:38:09.124Z,99542
2017-12-29T11:43:11.368Z,99534
2017-12-29T11:48:12.895Z,99532
2017-12-29T11:53:14.425Z,99527
2017-12-29T11:58:17.818Z,99496
2017-12-29T12:03:19.412Z,99499
2017-12-29T12:08:21.684Z,99480
2017-12-29T12:13:23.258Z,99462
2017-12-29T12:18:25.525Z,99449
2017-12-29T12:23:27.597Z,99431
2017-12-29T12:28:29.133Z,99420
2017-12-29T12:33:30.676Z,99400
2017-12-29T12:38:32.272Z,99398
2017-12-29T12:43:33.829Z,99388
2017-12-29T12:48:35.373Z,99380
2017-12-29T12:53:37.633Z,99380
2017-12-29T12:58:39.241Z,99383
2017-12-29T13:03:40.826Z,99376
2017-12-29T13:08:42.349Z,99371
2017-12-29T13:13:43.928Z,99361
2017-12-29T13:18:46.230Z,99354
2017-12-29T13:23:47.856Z,99346
2017-12-29T13:28:49.426Z,99333
2017-12-29T13:33:50.973Z,99328
2017-12-29T13:38:52.557Z,99312
2017-12-29T13:43:54.109Z,99305
2017-12-29T13:48:55.645Z,99288
2017-12-29T13:53:57.178Z,99275
2017-12-29T13:58:59.481Z,99264
2017-12-29T14:04:01.758Z,99250
2017-12-29T14:09:04.095Z,99242
2017-12-29T14:14:05.691Z,99236
2017-12-29T14:19:07.213Z,99220
2017-12-29T14:24:08.707Z,99216
2017-12-29T14:29:10.234Z,99197
2017-12-29T14:34:11.789Z,99182
2017-12-29T14:39:14.107Z,99178
2017-12-29T14:44:15.573Z,99165
2017-12-29T14:49:17.145Z,99163
2017-12-29T14:54:18.639Z,99141
2017-12-29T14:59:20.238Z,99124
2017-12-29T15:04:22.564Z,99120
2017-12-29T15:09:24.268Z,99105
2017-12-29T15:14:25.787Z,99098
2017-12-29T15:19:27.301Z,99094
2017-12-29T15:24:29.002Z,99073
2017-12-29T15:29:38.423Z,99058
2017-12-29T15:34:39.913Z,99038
2017-12-29T15:39:42.297Z,99023
2017-12-29T15:44:43.836Z,99008
2017-12-29T15:49:45.398Z,98999
2017-12-29T15:54:46.962Z,98985
2017-12-29T15:59:48.497Z,98977
2017-12-29T16:04:50.078Z,98972
2017-12-29T16:09:51.875Z,98977
2017-12-29T16:14:53.380Z,98968
2017-12-29T16:19:55.847Z,98949
2017-12-29T16:24:57.401Z,98957
2017-12-29T16:29:59.199Z,98946
2017-12-29T16:35:00.736Z,98945
2017-12-29T16:40:02.323Z,98944
2017-12-29T16:45:03.886Z,98935
2017-12-29T16:50:05.408Z,98923
2017-12-29T16:55:06.933Z,98921
2017-12-29T17:00:08.475Z,98917
2017-12-29T17:05:10.021Z,98917
2017-12-29T17:10:11.468Z,98909
2017-12-29T17:15:13.712Z,98895
2017-12-29T17:20:15.265Z,98910
2017-12-29T17:25:16.974Z,98896
2017-12-29T17:30:18.501Z,98902
2017-12-29T17:35:20.085Z,98893
2017-12-29T17:40:21.703Z,98863
2017-12-29T17:45:23.247Z,98864
2017-12-29T17:50:25.531Z,98847
2017-12-29T17:55:27.818Z,98833
2017-12-29T18:00:29.996Z,98840
2017-12-29T18:05:31.540Z,98829
2017-12-29T18:10:33.154Z,98822
2017-12-29T18:15:34.660Z,98819
2017-12-29T18:20:36.143Z,98806
2017-12-29T18:25:37.671Z,98802
2017-12-29T18:30:39.242Z,98795
2017-12-29T18:35:40.792Z,98807
2017-12-29T18:40:42.242Z,98784
2017-12-29T18:45:44.432Z,98792
2017-12-29T18:50:46.668Z,98781
2017-12-29T18:55:48.203Z,98787
2017-12-29T19:00:49.714Z,98788
2017-12-29T19:05:51.208Z,98792
2017-12-29T19:10:53.568Z,98775
2017-12-29T19:15:55.155Z,98776
2017-12-29T19:20:56.853Z,98776
2017-12-29T19:25:58.409Z,98766
2017-12-29T19:31:00.716Z,98770
2017-12-29T19:36:02.305Z,98762
2017-12-29T19:41:03.887Z,98774
2017-12-29T19:46:05.478Z,98773
2017-12-29T19:51:07.074Z,98782
2017-12-29T19:56:09.354Z,98772
2017-12-29T20:01:11.679Z,98772
2017-12-29T20:06:13.212Z,98766
2017-12-29T20:11:14.756Z,98791
2017-12-29T20:16:16.269Z,98805
2017-12-29T20:21:17.859Z,98808
2017-12-29T20:26:19.329Z,98821
2017-12-29T20:31:20.870Z,98822
2017-12-29T20:36:22.428Z,98833
2017-12-29T20:41:24.017Z,98826
2017-12-29T20:46:25.531Z,98837
2017-12-29T20:51:27.203Z,98849
2017-12-29T20:56:28.740Z,98844
2017-12-29T21:01:30.249Z,98866
2017-12-29T21:06:32.604Z,98861
2017-12-29T21:11:34.141Z,98872
2017-12-29T21:16:35.718Z,98881
2017-12-29T21:21:37.327Z,98895
2017-12-29T21:26:38.927Z,98904
2017-12-29T21:31:40.488Z,98925
2017-12-29T21:36:42.808Z,98933
2017-12-29T21:41:44.256Z,98938
2017-12-29T21:46:45.840Z,98947
2017-12-29T21:51:47.344Z,98950
2017-12-29T21:56:48.877Z,98968
2017-12-29T22:01:50.619Z,98990
2017-12-29T22:06:52.167Z,98998
2017-12-29T22:11:54.374Z,99013
2017-12-29T22:16:56.648Z,99033
2017-12-29T22:21:59.054Z,99036
2017-12-29T22:27:00.592Z,99047
2017-12-29T22:32:02.889Z,99063
2017-12-29T22:37:05.207Z,99070
2017-12-29T22:42:06.765Z,99077
2017-12-29T22:47:08.300Z,99092
2017-12-29T22:52:10.604Z,99104
2017-12-29T22:57:12.117Z,99097
2017-12-29T23:02:13.673Z,99137
2017-12-29T23:07:15.228Z,99126
2017-12-29T23:12:16.916Z,99144
2017-12-29T23:17:18.448Z,99151
2017-12-29T23:22:19.965Z,99163
2017-12-29T23:27:21.511Z,99178
2017-12-29T23:32:23.092Z,99197
2017-12-29T23:37:24.720Z,99198
2017-12-29T23:42:26.267Z,99205
2017-12-29T23:47:28.573Z,99203
2017-12-29T23:52:30.930Z,99209
2017-12-29T23:57:32.465Z,99224
